Time;durP1;ratioP1;P1;durP2;ratioP2;P2;SDS_P1;SDS_P2;PMS_P1;PMS_P2;Temp;Humidity;BMP_temperature;BMP_pressure;BME280_temperature;BME280_humidity;BME280_pressure;Samples;Min_cycle;Max_cycle;Signal;HPM_P1;HPM_P2
2021/11/14 00:00:00;;;;;;;8.73;5.07;;;;;;;-149.78;100.00;50401.03;5073572;28;20040;-63
2021/11/14 00:02:26;;;;;;;15.10;5.13;;;;;;;-149.78;100.00;50424.50;5067075;28;20040;-63
2021/11/14 00:04:52;;;;;;;13.68;5.30;;;;;;;-149.78;100.00;50438.19;5066922;28;20452;-62
2021/11/14 00:07:17;;;;;;;16.50;6.15;;;;;;;-149.78;100.00;50408.84;5054763;28;20051;-63
2021/11/14 00:09:44;;;;;;;16.55;6.00;;;;;;;-149.78;100.00;50455.81;5053094;28;20102;-62
2021/11/14 00:12:12;;;;;;;15.10;6.13;;;;;;;-149.78;100.00;50404.94;5054214;28;20032;-62
2021/11/14 00:14:37;;;;;;;14.13;5.28;;;;;;;-149.78;100.00;50416.69;5054639;28;20025;-63
2021/11/14 00:17:04;;;;;;;18.40;5.63;;;;;;;-149.78;100.00;50416.69;5069467;28;20058;-62
2021/11/14 00:19:30;;;;;;;14.25;5.47;;;;;;;-149.78;100.00;50406.91;5053631;28;20037;-62
2021/11/14 00:21:55;;;;;;;11.65;5.20;;;;;;;-149.78;100.00;50401.03;5053463;28;20037;-62
2021/11/14 00:24:21;;;;;;;11.35;5.45;;;;;;;-149.78;100.00;50422.56;5052610;28;20120;-63
2021/11/14 00:26:47;;;;;;;12.05;5.35;;;;;;;-149.78;100.00;50404.94;5051914;28;20039;-62
2021/11/14 00:29:12;;;;;;;11.82;5.68;;;;;;;-149.78;100.00;50389.31;5052035;28;20468;-62
2021/11/14 00:31:38;;;;;;;17.65;5.00;;;;;;;-149.78;100.00;50426.47;5065910;28;20108;-62
2021/11/14 00:34:05;;;;;;;12.30;4.75;;;;;;;-149.78;100.00;50406.91;5052639;28;20033;-62
2021/11/14 00:36:37;;;;;;;10.75;4.40;;;;;;;-149.78;100.00;50424.50;5053177;28;20028;-62
2021/11/14 00:39:07;;;;;;;10.18;4.32;;;;;;;-149.78;100.00;50412.78;5052791;28;20041;-62
2021/11/14 00:41:33;;;;;;;17.40;6.13;;;;;;;-149.78;100.00;50412.78;5051518;28;20037;-62
2021/11/14 00:43:59;;;;;;;13.65;4.60;;;;;;;-149.78;100.00;50416.69;5052701;28;20145;-63
2021/11/14 00:46:26;;;;;;;12.18;3.90;;;;;;;-149.78;100.00;50420.59;5052611;28;20032;-63
2021/11/14 00:48:52;;;;;;;9.77;4.43;;;;;;;-149.78;100.00;50418.63;5052872;28;20477;-63
2021/11/14 00:51:24;;;;;;;14.95;4.65;;;;;;;-149.78;100.00;50436.25;5061485;28;20037;-63
2021/11/14 00:53:50;;;;;;;10.80;4.63;;;;;;;-149.78;100.00;50416.69;5068950;28;20101;-62
2021/11/14 00:56:15;;;;;;;14.75;4.63;;;;;;;-149.78;100.00;50416.69;5056318;28;20377;-62
2021/11/14 00:58:41;;;;;;;11.85;4.05;;;;;;;-149.78;100.00;50428.41;5060011;28;20048;-62
2021/11/14 01:01:07;;;;;;;14.57;4.32;;;;;;;-149.78;100.00;50399.09;5071784;28;20053;-63
2021/11/14 01:03:32;;;;;;;12.25;4.75;;;;;;;-149.78;100.00;50414.72;5065681;28;20036;-62
2021/11/14 01:05:58;;;;;;;10.32;4.35;;;;;;;-149.78;100.00;50424.50;5060030;28;20052;-62
2021/11/14 01:08:28;;;;;;;11.82;4.70;;;;;;;-149.78;100.00;50420.59;5051322;28;20070;-62
2021/11/14 01:10:55;;;;;;;10.25;4.53;;;;;;;-149.78;100.00;50428.41;5053049;28;20060;-62
2021/11/14 01:13:21;;;;;;;11.98;5.03;;;;;;;-149.78;100.00;50447.97;5051667;28;20082;-62
2021/11/14 01:15:48;;;;;;;13.93;4.35;;;;;;;-149.78;100.00;50408.84;5053272;28;20056;-62
2021/11/14 01:18:16;;;;;;;10.05;4.72;;;;;;;-149.78;100.00;50404.94;5053947;28;20041;-63
2021/11/14 01:20:45;;;;;;;10.77;4.57;;;;;;;-149.78;100.00;50416.69;5051300;28;20033;-62
2021/11/14 01:23:14;;;;;;;13.38;4.55;;;;;;;-149.78;100.00;50418.63;5052592;28;20496;-62
2021/11/14 01:25:40;;;;;;;10.27;4.75;;;;;;;-149.78;100.00;50432.31;5050248;28;20465;-63
2021/11/14 01:28:06;;;;;;;12.75;4.80;;;;;;;-149.78;100.00;50412.78;5052924;28;20116;-62
2021/11/14 01:30:35;;;;;;;7.45;4.10;;;;;;;-149.78;100.00;50432.31;5049472;28;20063;-62
2021/11/14 01:33:04;;;;;;;12.00;3.97;;;;;;;-149.78;100.00;50422.56;5052435;28;20412;-63
2021/11/14 01:35:31;;;;;;;12.20;4.20;;;;;;;-149.78;100.00;50424.50;5049841;28;20370;-62
2021/11/14 01:37:56;;;;;;;14.32;4.55;;;;;;;-149.78;100.00;50412.78;5051206;28;20053;-62
2021/11/14 01:40:26;;;;;;;10.32;4.47;;;;;;;-149.78;100.00;50404.94;5051194;28;20029;-62
2021/11/14 01:42:53;;;;;;;10.82;4.00;;;;;;;-149.78;100.00;50371.69;5052884;28;20024;-62
2021/11/14 01:45:20;;;;;;;12.95;4.53;;;;;;;-149.78;100.00;50428.41;5056509;28;20116;-62
2021/11/14 01:47:46;;;;;;;12.23;4.68;;;;;;;-149.78;100.00;50397.13;5056628;28;20032;-63
2021/11/14 01:50:14;;;;;;;13.00;5.65;;;;;;;-149.78;100.00;50418.63;5060976;28;20499;-62
2021/11/14 01:52:41;;;;;;;12.00;4.75;;;;;;;-149.78;100.00;50424.50;5066038;28;20040;-62
2021/11/14 01:55:08;;;;;;;16.02;4.65;;;;;;;-149.78;100.00;50430.38;5061338;28;20067;-62
2021/11/14 01:57:36;;;;;;;10.23;4.45;;;;;;;-149.78;100.00;50430.38;5055229;28;20091;-62
2021/11/14 02:00:08;;;;;;;15.25;5.15;;;;;;;-149.78;100.00;50428.41;5064596;28;20029;-62
2021/11/14 02:02:34;;;;;;;11.53;4.77;;;;;;;-149.78;100.00;50424.50;5058212;28;20054;-62
2021/11/14 02:05:00;;;;;;;12.68;4.53;;;;;;;-149.78;100.00;50412.78;5057433;28;20069;-62
2021/11/14 02:07:26;;;;;;;10.27;4.80;;;;;;;-149.78;100.00;50397.13;5056781;28;20086;-62
2021/11/14 02:09:52;;;;;;;14.25;5.13;;;;;;;-149.78;100.00;50451.88;5055250;28;20029;-62
2021/11/14 02:12:18;;;;;;;9.90;4.55;;;;;;;-149.78;100.00;50447.97;5054568;28;20127;-63
2021/11/14 02:14:44;;;;;;;14.52;5.43;;;;;;;-149.78;100.00;50404.94;5054840;28;20059;-62
2021/11/14 02:17:10;;;;;;;8.52;4.22;;;;;;;-149.78;100.00;50424.50;5067591;28;20060;-62
2021/11/14 02:19:36;;;;;;;13.15;4.40;;;;;;;-149.78;100.00;50428.41;5060133;28;20384;-62
2021/11/14 02:22:02;;;;;;;10.10;4.35;;;;;;;-149.78;100.00;50389.31;5063466;28;20033;-62
2021/11/14 02:24:28;;;;;;;11.35;4.13;;;;;;;-149.78;100.00;50432.31;5072069;28;20028;-62
2021/11/14 02:26:54;;;;;;;10.70;4.18;;;;;;;-149.78;100.00;50369.75;5073804;28;20552;-62
2021/11/14 02:29:20;;;;;;;11.52;5.18;;;;;;;-149.78;100.00;50420.59;5069734;28;20060;-62
2021/11/14 02:31:47;;;;;;;10.25;5.20;;;;;;;-149.78;100.00;50440.16;5061844;28;20072;-62
2021/11/14 02:34:12;;;;;;;9.40;4.70;;;;;;;-149.78;100.00;50447.97;5064445;28;20040;-62
2021/11/14 02:36:39;;;;;;;9.98;4.90;;;;;;;-149.78;100.00;50404.94;5063702;28;20045;-62
2021/11/14 02:39:06;;;;;;;15.32;5.72;;;;;;;-149.78;100.00;50422.56;5065948;28;20398;-62
2021/11/14 02:41:32;;;;;;;13.93;5.07;;;;;;;-149.78;100.00;50428.41;5061896;28;20086;-62
2021/11/14 02:43:58;;;;;;;14.15;5.40;;;;;;;-149.78;100.00;50424.50;5068155;28;20053;-62
2021/11/14 02:46:24;;;;;;;16.50;5.97;;;;;;;-149.78;100.00;50403.00;5055432;28;20082;-63
2021/11/14 02:48:50;;;;;;;17.13;4.97;;;;;;;-149.78;100.00;50440.16;5058667;28;20112;-62
2021/11/14 02:51:19;;;;;;;14.50;4.80;;;;;;;-149.78;100.00;50432.31;5062397;28;20132;-62
2021/11/14 02:53:46;;;;;;;11.85;4.72;;;;;;;-149.78;100.00;50422.56;5065002;28;20383;-62
2021/11/14 02:56:13;;;;;;;10.65;4.43;;;;;;;-149.78;100.00;50447.97;5062775;28;20129;-62
2021/11/14 02:58:41;;;;;;;15.07;5.50;;;;;;;-149.78;100.00;50424.50;5063532;28;20450;-62
2021/11/14 03:01:12;;;;;;;13.55;4.95;;;;;;;-149.78;100.00;50424.50;5071682;28;20613;-62
2021/11/14 03:03:39;;;;;;;13.40;4.78;;;;;;;-149.78;100.00;50428.41;5070608;28;20044;-62
2021/11/14 03:06:05;;;;;;;15.98;5.32;;;;;;;-149.78;100.00;50463.63;5070015;28;20374;-62
2021/11/14 03:08:31;;;;;;;17.30;4.68;;;;;;;-149.78;100.00;50401.03;5070808;28;20051;-62
2021/11/14 03:10:57;;;;;;;14.60;4.63;;;;;;;-149.78;100.00;50418.63;5054151;28;20041;-62
2021/11/14 03:13:23;;;;;;;8.82;4.15;;;;;;;-149.78;100.00;50393.22;5064241;28;20090;-62
2021/11/14 03:16:01;;;;;;;17.25;5.00;;;;;;;-149.78;100.00;50440.16;5055170;28;20414;-62
2021/11/14 03:18:27;;;;;;;11.48;4.60;;;;;;;-149.78;100.00;50432.31;5073550;28;20047;-63
2021/11/14 03:20:55;;;;;;;12.68;4.80;;;;;;;-149.78;100.00;50416.69;5073126;28;20036;-63
2021/11/14 03:23:23;;;;;;;13.52;5.65;;;;;;;-149.78;100.00;50440.16;5070385;28;20033;-63
2021/11/14 03:25:49;;;;;;;12.63;4.85;;;;;;;-149.78;100.00;50395.16;5065141;28;20032;-63
2021/11/14 03:28:16;;;;;;;11.02;4.88;;;;;;;-149.78;100.00;50416.69;5066099;28;20044;-62
2021/11/14 03:30:43;;;;;;;14.38;4.82;;;;;;;-149.78;100.00;50416.69;5065561;28;20059;-63
2021/11/14 03:33:12;;;;;;;9.88;4.05;;;;;;;-149.78;100.00;50438.19;5060850;28;20036;-64
2021/11/14 03:35:52;;;;;;;10.88;4.60;;;;;;;-149.78;100.00;50434.28;5068070;28;20071;-64
2021/11/14 03:38:21;;;;;;;13.98;4.95;;;;;;;-149.78;100.00;50428.41;5063678;28;20367;-64
2021/11/14 03:40:47;;;;;;;11.43;4.82;;;;;;;-149.78;100.00;50459.72;5073019;28;20024;-64
2021/11/14 03:43:13;;;;;;;11.32;3.92;;;;;;;-149.78;100.00;50434.28;5071197;28;20078;-64
2021/11/14 03:45:39;;;;;;;10.52;4.38;;;;;;;-149.78;100.00;50440.16;5071914;28;20400;-64
2021/11/14 03:48:05;;;;;;;9.38;3.80;;;;;;;-149.78;100.00;50432.31;5064827;28;20128;-64
2021/11/14 03:50:31;;;;;;;6.65;4.00;;;;;;;-149.78;100.00;50447.97;5067035;28;20078;-64
2021/11/14 03:52:57;;;;;;;14.35;4.32;;;;;;;-149.78;100.00;50451.88;5067847;28;20067;-64
2021/11/14 03:55:23;;;;;;;6.53;3.78;;;;;;;-149.78;100.00;50416.69;5063610;28;20116;-63
2021/11/14 03:57:49;;;;;;;9.40;3.58;;;;;;;-149.78;100.00;50432.31;5067998;28;20115;-64
2021/11/14 04:00:26;;;;;;;11.45;4.03;;;;;;;-149.78;100.00;50428.41;5065368;28;20021;-64
2021/11/14 04:02:53;;;;;;;10.35;4.10;;;;;;;-149.78;100.00;50420.59;5067059;28;20474;-64
2021/11/14 04:05:21;;;;;;;6.20;3.47;;;;;;;-149.78;100.00;50395.16;5062759;28;20028;-64
2021/11/14 04:07:47;;;;;;;14.77;4.28;;;;;;;-149.78;100.00;50440.16;5065390;28;20048;-64
2021/11/14 04:10:13;;;;;;;11.70;3.90;;;;;;;-149.78;100.00;50410.81;5063415;28;20083;-64
2021/11/14 04:12:40;;;;;;;10.10;3.95;;;;;;;-149.78;100.00;50404.94;5054849;28;20033;-64
2021/11/14 04:15:07;;;;;;;12.30;3.67;;;;;;;-149.78;100.00;50397.13;5052980;28;20047;-64
2021/11/14 04:17:34;;;;;;;14.40;4.20;;;;;;;-149.78;100.00;50440.16;5052323;28;20476;-64
2021/11/14 04:20:00;;;;;;;13.43;3.60;;;;;;;-149.78;100.00;50420.59;5054164;28;20095;-64
2021/11/14 04:22:26;;;;;;;8.73;3.97;;;;;;;-149.78;100.00;50420.59;5061960;28;20025;-64
2021/11/14 04:24:52;;;;;;;8.63;3.78;;;;;;;-149.78;100.00;50406.91;5062097;28;20117;-64
2021/11/14 04:27:17;;;;;;;8.32;3.38;;;;;;;-149.78;100.00;50428.41;5060648;28;20037;-64
2021/11/14 04:29:43;;;;;;;14.25;4.35;;;;;;;-149.78;100.00;50436.25;5060125;28;20051;-64
2021/11/14 04:32:08;;;;;;;12.48;3.60;;;;;;;-149.78;100.00;50424.50;5060047;28;20072;-64
2021/11/14 04:34:34;;;;;;;11.40;3.90;;;;;;;-149.78;100.00;50463.63;5052810;28;20059;-64
2021/11/14 04:37:00;;;;;;;9.77;3.65;;;;;;;-149.78;100.00;50406.91;5057312;28;20041;-64
2021/11/14 04:39:25;;;;;;;10.73;3.78;;;;;;;-149.78;100.00;50408.84;5052255;28;20389;-64
2021/11/14 04:41:51;;;;;;;7.18;3.53;;;;;;;-149.78;100.00;50447.97;5052274;28;20279;-64
2021/11/14 04:44:16;;;;;;;11.55;3.38;;;;;;;-149.78;100.00;50440.16;5051909;28;20036;-64
2021/11/14 04:46:42;;;;;;;10.85;4.55;;;;;;;-149.78;100.00;50416.69;5061535;28;20036;-64
2021/11/14 04:49:08;;;;;;;8.35;3.35;;;;;;;-149.78;100.00;50424.50;5060608;28;20055;-64
2021/11/14 04:51:33;;;;;;;16.10;4.13;;;;;;;-149.78;100.00;50440.16;5058841;28;20029;-64
2021/11/14 04:53:59;;;;;;;12.85;3.92;;;;;;;-149.78;100.00;50428.41;5068185;28;20041;-64
2021/11/14 04:56:24;;;;;;;8.63;3.85;;;;;;;-149.78;100.00;50385.38;5055919;28;20065;-64
2021/11/14 04:58:50;;;;;;;9.43;3.83;;;;;;;-149.78;100.00;50408.84;5053719;28;20060;-64
2021/11/14 05:01:16;;;;;;;11.77;4.38;;;;;;;-149.78;100.00;50434.28;5064589;28;20538;-64
2021/11/14 05:03:42;;;;;;;12.38;3.55;;;;;;;-149.78;100.00;50455.81;5066142;28;20052;-64
2021/11/14 05:06:09;;;;;;;8.35;3.83;;;;;;;-149.78;100.00;50428.41;5057310;28;20036;-64
2021/11/14 05:08:36;;;;;;;9.38;3.92;;;;;;;-149.78;100.00;50455.81;5060807;28;20047;-64
2021/11/14 05:11:03;;;;;;;11.07;4.28;;;;;;;-149.78;100.00;50459.72;5058223;28;20055;-64
2021/11/14 05:13:28;;;;;;;9.45;3.58;;;;;;;-149.78;100.00;50455.81;5052854;28;20024;-64
2021/11/14 05:15:54;;;;;;;17.33;5.35;;;;;;;-149.78;100.00;50418.63;5058734;28;20083;-64
2021/11/14 05:18:19;;;;;;;9.63;3.95;;;;;;;-149.78;100.00;50440.16;5058393;28;20443;-64
2021/11/14 05:20:46;;;;;;;7.43;3.97;;;;;;;-149.78;100.00;50412.78;5054911;28;20491;-64
2021/11/14 05:23:16;;;;;;;13.00;4.10;;;;;;;-149.78;100.00;50416.69;5055094;28;20045;-64
2021/11/14 05:25:42;;;;;;;10.23;4.15;;;;;;;-149.78;100.00;50426.47;5060007;28;20384;-64
2021/11/14 05:28:08;;;;;;;10.93;4.15;;;;;;;-149.78;100.00;50436.25;5059556;28;20338;-64
2021/11/14 05:30:34;;;;;;;10.35;4.38;;;;;;;-149.78;100.00;50432.31;5061198;28;20085;-64
2021/11/14 05:33:00;;;;;;;11.48;4.72;;;;;;;-149.78;100.00;50436.25;5063557;28;20453;-64
2021/11/14 05:35:26;;;;;;;11.73;4.10;;;;;;;-149.78;100.00;50408.84;5055110;28;20072;-64
2021/11/14 05:37:51;;;;;;;10.27;4.32;;;;;;;-149.78;100.00;50401.03;5053419;28;20484;-64
2021/11/14 05:40:17;;;;;;;8.98;4.30;;;;;;;-149.78;100.00;50434.28;5061732;28;20029;-64
2021/11/14 05:42:43;;;;;;;12.23;4.65;;;;;;;-149.78;100.00;50463.63;5053354;28;20041;-64
2021/11/14 05:45:09;;;;;;;9.38;4.10;;;;;;;-149.78;100.00;50412.78;5056343;28;20064;-64
2021/11/14 05:47:35;;;;;;;15.30;4.38;;;;;;;-149.78;100.00;50408.84;5070755;28;20032;-64
2021/11/14 05:50:01;;;;;;;14.95;4.47;;;;;;;-149.78;100.00;50418.63;5065649;28;20037;-64
2021/11/14 05:52:27;;;;;;;8.43;4.03;;;;;;;-149.78;100.00;50424.50;5068258;28;20078;-64
2021/11/14 05:54:53;;;;;;;15.20;4.30;;;;;;;-149.78;100.00;50408.84;5071843;28;20032;-64
2021/11/14 05:57:19;;;;;;;13.73;4.50;;;;;;;-149.78;100.00;50432.31;5060746;28;20033;-64
2021/11/14 06:02:20;;;;;;;12.60;4.97;;;;;;;-149.78;100.00;50416.69;5067350;28;20047;-64
2021/11/14 06:07:17;;;;;;;11.70;4.77;;;;;;;-149.78;100.00;50391.25;5060708;28;20048;-64
2021/11/14 06:09:42;;;;;;;16.63;4.80;;;;;;;-149.78;100.00;50444.06;5053766;28;20037;-64
2021/11/14 06:12:08;;;;;;;10.45;4.15;;;;;;;-149.78;100.00;50399.09;5057518;28;20384;-64
2021/11/14 06:14:34;;;;;;;17.38;6.35;;;;;;;-149.78;100.00;50447.97;5064307;28;20040;-64
2021/11/14 06:17:00;;;;;;;11.70;4.68;;;;;;;-149.78;100.00;50463.63;5076129;28;20041;-64
2021/11/14 06:19:26;;;;;;;10.05;4.63;;;;;;;-149.78;100.00;50467.53;5056094;28;20037;-64
2021/11/14 06:21:52;;;;;;;11.90;5.25;;;;;;;-149.78;100.00;50385.38;5051865;28;20469;-64
2021/11/14 06:24:18;;;;;;;12.00;5.40;;;;;;;-149.78;100.00;50404.94;5055859;28;20373;-64
2021/11/14 06:26:44;;;;;;;12.98;5.43;;;;;;;-149.78;100.00;50467.53;5059987;28;20095;-64
2021/11/14 06:29:10;;;;;;;11.32;4.40;;;;;;;-149.78;100.00;50416.69;5057945;28;20112;-64
2021/11/14 06:31:36;;;;;;;11.88;4.53;;;;;;;-149.78;100.00;50428.41;5062915;28;20047;-64
2021/11/14 06:34:02;;;;;;;13.85;4.72;;;;;;;-149.78;100.00;50436.25;5062198;28;20037;-64
2021/11/14 06:36:28;;;;;;;13.60;4.47;;;;;;;-149.78;100.00;50436.25;5054424;28;20039;-64
2021/11/14 06:38:54;;;;;;;8.95;3.70;;;;;;;-149.78;100.00;50432.31;5071288;28;20036;-64
2021/11/14 06:41:20;;;;;;;12.13;5.93;;;;;;;-149.78;100.00;50432.31;5075322;28;20040;-64
2021/11/14 06:43:45;;;;;;;9.43;4.00;;;;;;;-149.78;100.00;50424.50;5074196;28;20040;-64
2021/11/14 06:46:11;;;;;;;14.13;4.55;;;;;;;-149.78;100.00;50408.84;5056349;28;20044;-64
2021/11/14 06:48:38;;;;;;;11.50;4.22;;;;;;;-149.78;100.00;50408.84;5065321;28;20042;-64
2021/11/14 06:51:04;;;;;;;13.63;4.55;;;;;;;-149.78;100.00;50397.13;5060503;28;20040;-64
2021/11/14 06:53:29;;;;;;;14.05;5.18;;;;;;;-149.78;100.00;50420.59;5054288;28;20078;-64
2021/11/14 06:55:55;;;;;;;10.35;4.15;;;;;;;-149.78;100.00;50420.59;5062370;28;20123;-64
2021/11/14 06:58:21;;;;;;;10.68;4.97;;;;;;;-149.78;100.00;50428.41;5073967;28;20037;-64
2021/11/14 07:00:47;;;;;;;14.13;6.25;;;;;;;-149.78;100.00;50432.31;5073097;28;20024;-64
2021/11/14 07:03:14;;;;;;;12.57;4.65;;;;;;;-149.78;100.00;50463.63;5071100;28;20028;-64
2021/11/14 07:05:40;;;;;;;12.93;4.50;;;;;;;-149.78;100.00;50416.69;5073803;28;20046;-64
2021/11/14 07:08:06;;;;;;;15.40;5.65;;;;;;;-149.78;100.00;50430.38;5069577;28;20048;-64
2021/11/14 07:10:31;;;;;;;11.18;4.70;;;;;;;-149.78;100.00;50436.25;5066581;28;20036;-64
2021/11/14 07:12:57;;;;;;;11.68;4.22;;;;;;;-149.78;100.00;50420.59;5070215;28;20041;-64
2021/11/14 07:15:23;;;;;;;13.30;5.22;;;;;;;-149.78;100.00;50416.69;5070291;28;20025;-64
2021/11/14 07:17:48;;;;;;;10.75;4.47;;;;;;;-149.78;100.00;50434.28;5070503;28;20029;-64
2021/11/14 07:20:16;;;;;;;11.00;4.30;;;;;;;-149.78;100.00;50434.28;5072322;28;20132;-65
2021/11/14 07:22:44;;;;;;;13.30;5.10;;;;;;;-149.78;100.00;50459.72;5072532;28;20259;-64
2021/11/14 07:25:14;;;;;;;11.00;4.35;;;;;;;-149.78;100.00;50408.84;5067502;28;20036;-64
2021/11/14 07:27:44;;;;;;;13.38;4.88;;;;;;;-149.78;100.00;50389.31;5069206;28;20040;-63
2021/11/14 07:30:12;;;;;;;16.00;4.88;;;;;;;-149.78;100.00;50416.69;5071735;28;20090;-63
2021/11/14 07:32:40;;;;;;;10.70;4.80;;;;;;;-149.78;100.00;50408.84;5070306;28;20051;-64
2021/11/14 07:35:17;;;;;;;11.50;4.70;;;;;;;-149.78;100.00;50459.72;5062691;28;20056;-63
2021/11/14 07:37:43;;;;;;;11.55;4.65;;;;;;;-149.78;100.00;50428.41;5069396;28;20115;-63
2021/11/14 07:40:11;;;;;;;11.43;5.50;;;;;;;-149.78;100.00;50440.16;5067177;28;20511;-64
2021/11/14 07:42:38;;;;;;;14.73;5.10;;;;;;;-149.78;100.00;50416.69;5065917;28;20067;-66
2021/11/14 07:45:07;;;;;;;15.43;5.45;;;;;;;-149.78;100.00;50432.31;5055930;28;20438;-64
2021/11/14 07:47:33;;;;;;;13.13;5.00;;;;;;;-149.78;100.00;50424.50;5055694;28;20067;-64
2021/11/14 07:50:00;;;;;;;14.55;4.95;;;;;;;-149.78;100.00;50432.31;5054991;28;20060;-64
2021/11/14 07:52:26;;;;;;;12.30;5.15;;;;;;;-149.78;100.00;50434.28;5067344;28;20044;-64
2021/11/14 07:54:52;;;;;;;12.00;5.20;;;;;;;-149.78;100.00;50432.31;5058324;28;20076;-64
2021/11/14 07:57:18;;;;;;;10.27;4.85;;;;;;;-149.78;100.00;50408.84;5059904;28;20040;-65
2021/11/14 07:59:45;;;;;;;12.52;4.78;;;;;;;-149.78;100.00;50422.56;5070271;28;20499;-64
2021/11/14 08:02:11;;;;;;;12.27;5.13;;;;;;;-149.78;100.00;50420.59;5059698;28;20055;-64
2021/11/14 08:04:38;;;;;;;13.90;5.20;;;;;;;-149.78;100.00;50447.97;5051884;28;20059;-65
2021/11/14 08:07:04;;;;;;;11.40;5.00;;;;;;;-149.78;100.00;50428.41;5068996;28;20502;-64
2021/11/14 08:09:30;;;;;;;14.85;5.00;;;;;;;-149.78;100.00;50455.81;5061310;28;20037;-64
2021/11/14 08:11:56;;;;;;;12.82;4.78;;;;;;;-149.78;100.00;50428.41;5066807;28;20468;-64
2021/11/14 08:14:21;;;;;;;12.32;5.47;;;;;;;-149.78;100.00;50420.59;5070859;28;20049;-64
2021/11/14 08:16:47;;;;;;;10.57;5.38;;;;;;;-149.78;100.00;50404.94;5068717;28;20518;-64
2021/11/14 08:19:13;;;;;;;15.15;6.70;;;;;;;-149.78;100.00;50459.72;5069997;28;20483;-64
2021/11/14 08:21:39;;;;;;;12.23;5.03;;;;;;;-149.78;100.00;50463.63;5069781;28;20090;-64
2021/11/14 08:24:06;;;;;;;12.95;5.60;;;;;;;-149.78;100.00;50401.03;5067073;28;20383;-64
2021/11/14 08:26:31;;;;;;;12.35;5.38;;;;;;;-149.78;100.00;50424.50;5070196;28;20368;-64
2021/11/14 08:28:58;;;;;;;12.85;5.25;;;;;;;-149.78;100.00;50408.84;5067252;28;20119;-64
2021/11/14 08:31:25;;;;;;;11.15;4.97;;;;;;;-149.78;100.00;50397.13;5069985;28;20420;-64
2021/11/14 08:33:52;;;;;;;15.52;5.03;;;;;;;-149.78;100.00;50436.25;5071009;28;20425;-64
2021/11/14 08:36:18;;;;;;;13.55;5.97;;;;;;;-149.78;100.00;50447.97;5072150;28;20411;-64
2021/11/14 08:38:44;;;;;;;16.10;5.97;;;;;;;-149.78;100.00;50404.94;5059689;28;20037;-64
2021/11/14 08:41:10;;;;;;;16.63;5.90;;;;;;;-149.78;100.00;50447.97;5072911;28;20503;-64
2021/11/14 08:43:38;;;;;;;20.42;6.50;;;;;;;-149.78;100.00;50455.81;5059332;28;20362;-64
2021/11/14 08:46:05;;;;;;;18.23;6.93;;;;;;;-149.78;100.00;50389.31;5051954;28;20033;-64
2021/11/14 08:48:31;;;;;;;18.38;6.97;;;;;;;-149.78;100.00;50424.50;5064939;28;20028;-64
2021/11/14 08:50:57;;;;;;;19.95;7.13;;;;;;;-149.78;100.00;50438.19;5069615;28;20070;-64
2021/11/14 08:53:24;;;;;;;19.85;7.53;;;;;;;-149.78;100.00;50436.25;5063453;28;20036;-64
2021/11/14 08:55:54;;;;;;;23.08;8.20;;;;;;;-149.78;100.00;50424.50;5056873;28;20063;-64
2021/11/14 08:58:19;;;;;;;21.98;8.13;;;;;;;-149.78;100.00;50459.72;5061189;28;20491;-64
2021/11/14 09:00:45;;;;;;;26.27;9.23;;;;;;;-149.78;100.00;50440.16;5071618;28;20036;-64
2021/11/14 09:03:11;;;;;;;22.77;8.93;;;;;;;-149.78;100.00;50424.50;5067412;28;20024;-64
2021/11/14 09:05:37;;;;;;;22.73;8.55;;;;;;;-149.78;100.00;50428.41;5060778;28;20033;-64
2021/11/14 09:08:05;;;;;;;26.23;8.60;;;;;;;-149.78;100.00;50420.59;5055581;28;20045;-64
2021/11/14 09:10:33;;;;;;;22.75;8.40;;;;;;;-149.78;100.00;50451.88;5063148;28;20041;-64
2021/11/14 09:13:00;;;;;;;23.90;8.48;;;;;;;-149.78;100.00;50387.34;5060585;28;20041;-64
2021/11/14 09:15:29;;;;;;;24.83;8.43;;;;;;;-149.78;100.00;50418.63;5061436;28;20036;-64
2021/11/14 09:17:56;;;;;;;26.52;8.32;;;;;;;-149.78;100.00;50432.31;5062970;28;20055;-64
2021/11/14 09:20:23;;;;;;;28.42;8.57;;;;;;;-149.78;100.00;50408.84;5062142;28;20032;-64
2021/11/14 09:22:48;;;;;;;28.60;9.30;;;;;;;-149.78;100.00;50389.31;5067258;28;20054;-64
2021/11/14 09:25:15;;;;;;;21.73;8.68;;;;;;;-149.78;100.00;50428.41;5076575;28;20041;-64
2021/11/14 09:27:40;;;;;;;25.23;8.88;;;;;;;-149.78;100.00;50420.59;5066454;28;20494;-64
2021/11/14 09:30:08;;;;;;;24.75;8.68;;;;;;;-149.78;100.00;50440.16;5059558;28;20037;-64
2021/11/14 09:32:35;;;;;;;26.63;8.45;;;;;;;-149.78;100.00;50416.69;5059545;28;20029;-64
2021/11/14 09:35:00;;;;;;;22.00;8.25;;;;;;;-149.78;100.00;50408.84;5052753;28;20039;-64
2021/11/14 09:37:26;;;;;;;28.20;8.48;;;;;;;-149.78;100.00;50412.78;5059926;28;20037;-64
2021/11/14 09:39:52;;;;;;;27.60;8.32;;;;;;;-149.78;100.00;50426.47;5064607;28;20037;-64
2021/11/14 09:42:20;;;;;;;23.83;8.93;;;;;;;-149.78;100.00;50436.25;5055692;28;20029;-64
2021/11/14 09:44:46;;;;;;;23.08;7.88;;;;;;;-149.78;100.00;50414.72;5059753;28;20044;-65
2021/11/14 09:47:13;;;;;;;30.75;9.40;;;;;;;-149.78;100.00;50401.03;5057882;28;20457;-64
2021/11/14 09:49:39;;;;;;;22.00;8.63;;;;;;;-149.78;100.00;50420.59;5066628;28;20028;-64
2021/11/14 09:52:05;;;;;;;26.55;8.90;;;;;;;-149.78;100.00;50457.75;5064240;28;20044;-64
2021/11/14 09:54:32;;;;;;;23.30;8.98;;;;;;;-149.78;100.00;50412.78;5057337;28;20346;-64
2021/11/14 09:57:00;;;;;;;22.67;9.50;;;;;;;-149.78;100.00;50404.94;5062159;28;20456;-64
2021/11/14 09:59:26;;;;;;;27.73;9.20;;;;;;;-149.78;100.00;50487.09;5058998;28;20082;-64
2021/11/14 10:01:54;;;;;;;32.95;9.57;;;;;;;-149.78;100.00;50475.34;5068753;28;20472;-64
2021/11/14 10:04:20;;;;;;;26.35;9.52;;;;;;;-149.78;100.00;50447.97;5071247;28;20051;-64
2021/11/14 10:06:54;;;;;;;29.17;9.77;;;;;;;-149.78;100.00;50432.31;5072112;28;20032;-64
2021/11/14 10:09:28;;;;;;;31.88;9.88;;;;;;;-149.78;100.00;50410.81;5069834;28;20032;-65
2021/11/14 10:11:54;;;;;;;33.65;10.70;;;;;;;-149.78;100.00;50459.72;5062734;28;20116;-64
2021/11/14 10:14:22;;;;;;;28.15;10.88;;;;;;;-149.78;100.00;50436.25;5065124;28;20131;-64
2021/11/14 10:16:47;;;;;;;27.70;10.65;;;;;;;-149.78;100.00;50426.47;5056037;28;20033;-64
2021/11/14 10:19:13;;;;;;;29.92;10.63;;;;;;;-149.78;100.00;50420.59;5064793;28;20097;-64
2021/11/14 10:21:40;;;;;;;33.72;11.52;;;;;;;-149.78;100.00;50447.97;5070882;28;20548;-64
2021/11/14 10:24:10;;;;;;;34.05;11.20;;;;;;;-149.78;100.00;50451.88;5054764;28;20063;-64
2021/11/14 10:26:37;;;;;;;30.65;10.90;;;;;;;-149.78;100.00;50416.69;5061189;28;20029;-64
2021/11/14 10:29:11;;;;;;;30.70;11.07;;;;;;;-149.78;100.00;50440.16;5059501;28;20139;-64
2021/11/14 10:31:40;;;;;;;39.17;11.60;;;;;;;-149.78;100.00;50440.16;5069148;28;20078;-64
2021/11/14 10:34:05;;;;;;;37.50;14.00;;;;;;;-149.78;100.00;50447.97;5071296;28;20047;-64
2021/11/14 10:36:32;;;;;;;35.60;13.30;;;;;;;-149.78;100.00;50424.50;5071344;28;20191;-64
2021/11/14 10:39:07;;;;;;;40.22;14.60;;;;;;;-149.78;100.00;50412.78;5069538;28;20037;-64
2021/11/14 10:41:33;;;;;;;56.03;18.63;;;;;;;-149.78;100.00;50399.09;5066353;28;20356;-64
2021/11/14 10:44:24;;;;;;;41.03;14.98;;;;;;;-149.78;100.00;50428.41;5069846;28;20056;-65
2021/11/14 10:46:50;;;;;;;44.00;13.47;;;;;;;-149.78;100.00;50432.31;5068393;28;20060;-64
2021/11/14 10:49:16;;;;;;;47.65;15.13;;;;;;;-149.78;100.00;50436.25;5070663;28;20079;-63
2021/11/14 10:51:42;;;;;;;50.63;14.95;;;;;;;-149.78;100.00;50440.16;5071693;28;20028;-64
2021/11/14 10:54:10;;;;;;;45.97;15.73;;;;;;;-149.78;100.00;50451.88;5067720;28;20496;-64
2021/11/14 10:56:37;;;;;;;37.33;14.88;;;;;;;-149.78;100.00;50436.25;5071651;28;20044;-64
2021/11/14 10:59:05;;;;;;;46.97;16.52;;;;;;;-149.78;100.00;50428.41;5071241;28;20067;-64
2021/11/14 11:01:33;;;;;;;49.83;15.70;;;;;;;-149.78;100.00;50424.50;5071682;28;20029;-63
2021/11/14 11:03:59;;;;;;;44.78;15.73;;;;;;;-149.78;100.00;50408.84;5066351;28;20429;-63